createdAt,value
2023-04-04T00:01:30.213Z,1.73
2023-04-04T00:04:00.529Z,2.17
2023-04-04T00:06:30.797Z,1.67
2023-04-04T00:09:00.914Z,2.53
2023-04-04T00:11:31.017Z,2.90
2023-04-04T00:14:01.179Z,2.10
2023-04-04T00:19:01.124Z,2.38
2023-04-04T00:24:02.483Z,2.40
2023-04-04T00:26:34.355Z,2.10
2023-04-04T00:29:04.723Z,2.40
2023-04-04T00:31:35.195Z,1.60
2023-04-04T00:34:05.664Z,2.08
2023-04-04T00:39:05.156Z,2.13
2023-04-04T00:41:35.636Z,2.30
2023-04-04T00:44:05.871Z,2.45
2023-04-04T00:46:37.109Z,2.33
2023-04-04T00:49:07.541Z,2.53
2023-04-04T00:51:38.152Z,2.28
2023-04-04T00:54:08.553Z,2.08
2023-04-04T00:56:40.895Z,2.15
2023-04-04T00:59:11.206Z,1.95
2023-04-04T01:01:42.120Z,2.42
2023-04-04T01:04:12.422Z,2.20
2023-04-04T01:06:42.862Z,1.48
2023-04-04T01:09:14.056Z,2.13
2023-04-04T01:11:45.557Z,2.88
2023-04-04T01:14:16.891Z,2.33
2023-04-04T01:16:48.081Z,2.00
2023-04-04T01:19:33.812Z,2.00
2023-04-04T01:22:09.849Z,2.45
2023-04-04T01:24:55.953Z,3.10
2023-04-04T01:27:27.547Z,2.10
2023-04-04T01:30:06.487Z,2.17
2023-04-04T01:33:18.424Z,2.78
2023-04-04T01:36:18.288Z,2.78
2023-04-04T01:39:25.730Z,2.55
2023-04-04T01:42:15.530Z,2.20
2023-04-04T01:44:49.172Z,2.92
2023-04-04T01:47:37.907Z,2.88
2023-04-04T01:50:10.530Z,2.97
2023-04-04T01:52:41.549Z,2.47
2023-04-04T01:55:11.982Z,2.67
2023-04-04T01:57:42.723Z,2.80
2023-04-04T02:00:13.944Z,2.72
2023-04-04T02:02:46.930Z,2.97
2023-04-04T02:05:17.348Z,2.83
2023-04-04T02:07:51.952Z,3.10
2023-04-04T02:10:34.065Z,2.65
2023-04-04T02:15:35.674Z,2.05
2023-04-04T02:18:06.170Z,2.50
2023-04-04T02:20:36.384Z,2.33
2023-04-04T02:23:06.757Z,2.97
2023-04-04T02:25:37.025Z,2.60
2023-04-04T02:30:37.101Z,3.20
2023-04-04T02:33:07.287Z,2.83
2023-04-04T02:35:37.734Z,3.28
2023-04-04T02:38:08.910Z,4.40
2023-04-04T02:40:49.782Z,4.45
2023-04-04T02:43:20.062Z,5.53
2023-04-04T02:45:52.005Z,4.00
2023-04-04T02:48:27.267Z,4.65
2023-04-04T02:51:10.998Z,4.30
2023-04-04T02:53:41.135Z,3.50
2023-04-04T02:56:22.442Z,4.13
2023-04-04T03:01:23.193Z,3.33
2023-04-04T03:03:53.476Z,4.97
2023-04-04T03:06:24.790Z,4.90
2023-04-04T03:09:15.144Z,3.35
2023-04-04T03:11:45.360Z,4.18
2023-04-04T03:16:46.512Z,4.18
2023-04-04T03:19:17.445Z,4.78
2023-04-04T03:21:47.477Z,4.75
2023-04-04T03:24:17.563Z,5.60
2023-04-04T03:26:47.777Z,4.68
2023-04-04T03:29:18.962Z,5.72
2023-04-04T03:31:49.165Z,6.38
2023-04-04T03:36:48.920Z,8.40
2023-04-04T03:39:19.079Z,9.77
2023-04-04T03:44:19.496Z,9.15
2023-04-04T03:46:49.628Z,8.43
2023-04-04T03:49:20.930Z,7.55
2023-04-04T03:51:51.217Z,8.45
2023-04-04T03:56:51.039Z,7.70
2023-04-04T03:59:22.945Z,7.22
2023-04-04T04:01:53.741Z,6.85
2023-04-04T04:04:23.981Z,7.18
2023-04-04T04:09:24.027Z,5.57
2023-04-04T04:14:23.487Z,6.53
2023-04-04T04:19:36.637Z,5.55
2023-04-04T04:22:07.088Z,5.82
2023-04-04T04:24:37.975Z,6.07
2023-04-04T04:27:08.268Z,5.60
2023-04-04T04:29:39.390Z,4.90
2023-04-04T04:32:09.618Z,5.00
2023-04-04T04:34:47.994Z,5.78
2023-04-04T04:37:19.846Z,5.63
2023-04-04T04:39:53.363Z,5.70
2023-04-04T04:42:49.382Z,5.50
2023-04-04T04:45:24.356Z,5.65
2023-04-04T04:48:06.903Z,5.43
2023-04-04T04:50:46.561Z,5.82
2023-04-04T04:53:35.051Z,4.30
2023-04-04T04:56:06.585Z,4.72
2023-04-04T04:58:38.973Z,5.32
2023-04-04T05:01:13.258Z,5.22
2023-04-04T05:03:43.664Z,5.05
2023-04-04T05:06:17.577Z,5.13
2023-04-04T05:08:48.610Z,6.32
2023-04-04T05:11:28.418Z,5.38
2023-04-04T05:16:31.279Z,5.60
2023-04-04T05:19:01.856Z,5.63
2023-04-04T05:21:36.190Z,4.68
2023-04-04T05:24:09.058Z,4.97
2023-04-04T05:26:41.494Z,6.43
2023-04-04T05:31:45.879Z,5.53
2023-04-04T05:34:20.964Z,5.05
2023-04-04T05:36:54.377Z,5.78
2023-04-04T05:39:25.068Z,5.30
2023-04-04T05:42:03.540Z,5.75
2023-04-04T05:44:38.562Z,5.78
2023-04-04T05:47:10.635Z,6.00
2023-04-04T05:49:45.148Z,6.13
2023-04-04T05:52:15.506Z,5.85
2023-04-04T05:54:46.066Z,5.35
2023-04-04T05:57:25.340Z,4.68
2023-04-04T05:59:59.204Z,4.43
2023-04-04T06:02:30.706Z,4.68
2023-04-04T06:05:05.838Z,5.45
2023-04-04T06:07:39.410Z,4.68
2023-04-04T06:10:11.734Z,5.03
2023-04-04T06:12:42.280Z,5.45
2023-04-04T06:15:13.781Z,4.55
2023-04-04T06:17:46.227Z,5.00
2023-04-04T06:20:16.456Z,4.72
2023-04-04T06:22:47.040Z,4.53
2023-04-04T06:25:17.436Z,4.72
2023-04-04T06:27:48.958Z,4.35
2023-04-04T06:30:19.391Z,4.57
2023-04-04T06:32:54.023Z,4.95
2023-04-04T06:35:28.036Z,4.40
2023-04-04T06:38:01.697Z,4.43
2023-04-04T06:40:32.264Z,4.05
2023-04-04T06:43:03.130Z,4.30
2023-04-04T06:45:37.345Z,3.88
2023-04-04T06:48:07.686Z,3.97
2023-04-04T06:50:38.970Z,3.92
2023-04-04T06:53:15.111Z,4.45
2023-04-04T06:55:45.184Z,4.20
2023-04-04T06:58:15.270Z,5.05
2023-04-04T07:00:45.394Z,4.90
2023-04-04T07:03:15.529Z,5.60
2023-04-04T07:05:45.873Z,6.55
2023-04-04T07:10:45.486Z,8.38
2023-04-04T07:13:15.867Z,8.30
2023-04-04T07:15:51.455Z,8.10
2023-04-04T07:18:21.882Z,9.18
2023-04-04T07:20:52.042Z,8.43
2023-04-04T07:23:22.274Z,8.45
2023-04-04T07:25:53.181Z,7.03
2023-04-04T07:28:23.481Z,6.15
2023-04-04T07:30:53.338Z,5.72
2023-04-04T07:33:23.949Z,6.40
2023-04-04T07:35:55.854Z,4.22
2023-04-04T07:38:26.077Z,4.18
2023-04-04T07:40:56.940Z,3.22
2023-04-04T07:43:27.116Z,3.05
2023-04-04T07:45:57.545Z,2.78
2023-04-04T07:48:29.112Z,2.83
2023-04-04T07:51:01.436Z,2.05
2023-04-04T07:53:31.938Z,2.60
2023-04-04T07:56:07.499Z,2.75
2023-04-04T07:58:38.045Z,2.05
2023-04-04T08:01:08.404Z,1.92
2023-04-04T08:06:08.449Z,2.38
2023-04-04T08:11:08.245Z,2.35
2023-04-04T08:13:38.583Z,2.88
2023-04-04T08:18:39.072Z,2.45
2023-04-04T08:21:09.508Z,2.83
2023-04-04T08:23:39.623Z,3.25
2023-04-04T08:26:09.724Z,3.40
2023-04-04T08:28:40.181Z,3.30
2023-04-04T08:31:11.510Z,2.95
2023-04-04T08:33:47.318Z,2.65
2023-04-04T08:36:17.907Z,3.60
2023-04-04T08:38:48.078Z,4.05
2023-04-04T08:41:18.389Z,3.83
2023-04-04T08:46:26.882Z,4.00
2023-04-04T08:48:59.264Z,3.53
2023-04-04T08:51:33.029Z,3.90
2023-04-04T08:54:04.965Z,3.63
2023-04-04T08:56:37.186Z,4.22
2023-04-04T08:59:07.815Z,4.28
2023-04-04T09:01:38.663Z,3.65
2023-04-04T09:04:10.773Z,3.03
2023-04-04T09:06:51.706Z,3.60
2023-04-04T09:09:22.715Z,2.80
2023-04-04T09:11:53.949Z,2.40
2023-04-04T09:14:24.711Z,2.92
2023-04-04T09:16:55.013Z,2.60
2023-04-04T09:21:56.924Z,3.10
2023-04-04T09:24:38.092Z,2.95
2023-04-04T09:27:11.574Z,3.00
2023-04-04T09:29:43.186Z,3.78
2023-04-04T09:32:20.239Z,3.72
2023-04-04T09:34:51.303Z,3.65
2023-04-04T09:37:21.517Z,3.88
2023-04-04T09:39:52.212Z,3.83
2023-04-04T09:42:22.666Z,4.07
2023-04-04T09:44:56.278Z,3.90
2023-04-04T09:47:31.482Z,4.35
2023-04-04T09:50:02.554Z,4.05
2023-04-04T09:52:39.184Z,4.40
2023-04-04T09:57:39.260Z,4.15
2023-04-04T10:02:48.124Z,3.65
2023-04-04T10:05:19.330Z,4.22
2023-04-04T10:07:49.849Z,3.78
2023-04-04T10:10:21.479Z,4.15
2023-04-04T10:12:54.390Z,3.33
2023-04-04T10:15:25.684Z,3.50
2023-04-04T10:17:56.602Z,3.38
2023-04-04T10:20:27.453Z,4.00
2023-04-04T10:22:57.826Z,3.30
2023-04-04T10:27:57.967Z,3.65
2023-04-04T10:30:28.519Z,3.67
2023-04-04T10:33:08.388Z,4.10
2023-04-04T10:35:40.460Z,4.47
2023-04-04T10:38:11.793Z,5.25
2023-04-04T10:40:48.164Z,5.60
2023-04-04T10:43:23.376Z,7.00
2023-04-04T10:45:53.561Z,6.55
2023-04-04T10:48:27.270Z,6.32
2023-04-04T10:50:58.741Z,7.88
2023-04-04T10:53:29.470Z,7.25
2023-04-04T10:56:01.631Z,7.75
2023-04-04T10:58:31.881Z,6.60
2023-04-04T11:01:02.900Z,5.85
2023-04-04T11:03:35.240Z,5.45
2023-04-04T11:06:15.799Z,5.68
2023-04-04T11:08:57.392Z,5.28
2023-04-04T11:11:29.339Z,5.35
2023-04-04T11:14:03.104Z,4.95
2023-04-04T11:16:48.276Z,4.53
2023-04-04T11:19:19.138Z,4.13
2023-04-04T11:21:51.268Z,5.05
2023-04-04T11:24:21.582Z,4.53
2023-04-04T11:26:51.810Z,4.55
2023-04-04T11:29:25.048Z,4.05
2023-04-04T11:31:55.401Z,5.35
2023-04-04T11:34:38.877Z,4.50
2023-04-04T11:37:21.487Z,4.75
2023-04-04T11:39:57.685Z,4.28
2023-04-04T11:42:36.181Z,4.60
2023-04-04T11:45:13.846Z,3.95
2023-04-04T11:47:49.085Z,4.22
2023-04-04T11:50:22.136Z,4.22
2023-04-04T11:52:53.890Z,4.53
2023-04-04T11:55:24.904Z,4.55
2023-04-04T11:57:56.760Z,4.47
2023-04-04T12:00:34.023Z,4.15
2023-04-04T12:03:07.014Z,3.92
2023-04-04T12:05:37.673Z,3.92
2023-04-04T12:08:09.996Z,4.40
2023-04-04T12:10:42.311Z,3.95
2023-04-04T12:13:14.281Z,3.80
2023-04-04T12:15:45.273Z,5.53
2023-04-04T12:18:23.576Z,6.15
2023-04-04T12:20:53.921Z,7.78
2023-04-04T12:25:56.207Z,6.40
2023-04-04T12:28:28.364Z,4.00
2023-04-04T12:30:58.752Z,3.63
2023-04-04T12:35:58.389Z,3.75
2023-04-04T12:41:00.472Z,3.75
2023-04-04T12:43:35.209Z,2.97
2023-04-04T12:46:10.119Z,3.00
2023-04-04T12:48:41.169Z,3.22
2023-04-04T12:51:12.444Z,2.92
2023-04-04T12:53:55.361Z,3.38
2023-04-04T12:56:29.286Z,2.65
2023-04-04T12:59:10.770Z,2.92
2023-04-04T13:01:40.934Z,2.25
2023-04-04T13:04:11.978Z,2.88
2023-04-04T13:06:42.438Z,3.20
2023-04-04T13:09:20.249Z,2.65
2023-04-04T13:12:04.616Z,2.63
2023-04-04T13:15:00.128Z,3.28
2023-04-04T13:17:47.263Z,2.88
2023-04-04T13:20:19.813Z,3.08
2023-04-04T13:22:50.173Z,2.40
2023-04-04T13:25:20.481Z,2.72
2023-04-04T13:27:50.574Z,3.25
2023-04-04T13:30:20.793Z,3.40
2023-04-04T13:32:50.693Z,3.28
2023-04-04T13:37:50.481Z,3.47
2023-04-04T13:40:23.111Z,2.80
2023-04-04T13:42:53.588Z,3.08
2023-04-04T13:45:23.965Z,3.00
2023-04-04T13:47:54.092Z,2.67
2023-04-04T13:52:55.274Z,2.33
2023-04-04T13:55:25.533Z,2.55
2023-04-04T13:57:55.957Z,3.25
2023-04-04T14:00:26.886Z,2.85
2023-04-04T14:02:58.194Z,3.05
2023-04-04T14:05:28.454Z,2.92
2023-04-04T14:07:58.621Z,3.10
2023-04-04T14:10:28.856Z,3.00
2023-04-04T14:12:59.103Z,3.47
2023-04-04T14:15:30.309Z,2.17
2023-04-04T14:18:00.877Z,1.92
2023-04-04T14:20:31.882Z,1.83
2023-04-04T14:23:02.682Z,2.25
2023-04-04T14:25:32.920Z,2.55
2023-04-04T14:28:03.092Z,2.42
2023-04-04T14:30:36.104Z,2.75
2023-04-04T14:33:06.757Z,2.40
2023-04-04T14:35:37.808Z,2.53
2023-04-04T14:38:08.143Z,2.42
2023-04-04T14:40:39.069Z,2.20
2023-04-04T14:43:09.314Z,1.95
2023-04-04T14:45:39.833Z,1.85
2023-04-04T14:48:10.251Z,2.28
2023-04-04T14:50:41.484Z,2.25
2023-04-04T14:53:12.215Z,2.50
2023-04-04T14:55:42.751Z,2.70
2023-04-04T14:58:13.655Z,2.55
2023-04-04T15:00:43.875Z,2.38
2023-04-04T15:03:14.238Z,2.53
2023-04-04T15:05:44.428Z,3.13
2023-04-04T15:08:14.570Z,2.83
2023-04-04T15:10:44.823Z,2.33
2023-04-04T15:13:15.135Z,2.50
2023-04-04T15:15:46.782Z,2.60
2023-04-04T15:18:18.651Z,2.45
2023-04-04T15:20:48.907Z,2.40
2023-04-04T15:23:19.195Z,2.47
2023-04-04T15:25:49.484Z,2.45
2023-04-04T15:28:39.561Z,2.33
2023-04-04T15:31:09.853Z,2.20
2023-04-04T15:33:40.123Z,2.30
2023-04-04T15:36:10.490Z,2.10
2023-04-04T15:38:41.684Z,2.10
2023-04-04T15:41:12.259Z,1.73
2023-04-04T15:43:43.613Z,1.85
2023-04-04T15:46:14.425Z,1.60
2023-04-04T15:48:44.605Z,1.58
2023-04-04T15:51:15.050Z,1.60
2023-04-04T15:53:45.196Z,2.00
2023-04-04T15:58:45.293Z,2.30
2023-04-04T16:01:15.734Z,1.65
2023-04-04T16:03:46.105Z,1.85
2023-04-04T16:06:16.481Z,2.60
2023-04-04T16:08:46.813Z,2.38
2023-04-04T16:11:17.237Z,2.30
2023-04-04T16:13:47.454Z,2.08
2023-04-04T16:16:18.632Z,2.17
2023-04-04T16:18:49.437Z,1.77
2023-04-04T16:23:49.144Z,2.33
2023-04-04T16:26:19.326Z,2.40
2023-04-04T16:28:49.451Z,2.40
2023-04-04T16:31:19.584Z,2.13
2023-04-04T16:33:50.069Z,1.92
2023-04-04T16:36:20.359Z,2.33
2023-04-04T16:38:50.606Z,2.03
2023-04-04T16:43:54.011Z,1.85
2023-04-04T16:46:24.217Z,2.03
2023-04-04T16:48:54.496Z,2.22
2023-04-04T16:51:24.604Z,2.70
2023-04-04T16:53:54.717Z,2.58
2023-04-04T16:56:26.267Z,3.17
2023-04-04T16:58:56.555Z,2.78
2023-04-04T17:01:27.416Z,2.67
2023-04-04T17:03:57.694Z,2.45
2023-04-04T17:06:28.585Z,2.60
2023-04-04T17:08:58.920Z,3.05
2023-04-04T17:11:29.824Z,1.95
2023-04-04T17:14:00.175Z,1.48
2023-04-04T17:16:30.303Z,1.20
2023-04-04T17:19:00.518Z,1.27
2023-04-04T17:21:30.627Z,1.83
2023-04-04T17:24:00.751Z,1.25
2023-04-04T17:26:30.621Z,1.52
2023-04-04T17:29:00.908Z,1.05
2023-04-04T17:31:31.218Z,0.98
2023-04-04T17:34:01.440Z,0.75
2023-04-04T17:36:32.249Z,1.35
2023-04-04T17:39:02.679Z,1.55
2023-04-04T17:41:33.003Z,1.05
2023-04-04T17:44:03.637Z,1.20
2023-04-04T17:46:33.849Z,1.35
2023-04-04T17:49:04.022Z,1.40
2023-04-04T17:51:35.015Z,1.42
2023-04-04T17:54:06.261Z,1.52
2023-04-04T17:56:36.909Z,1.58
2023-04-04T17:59:07.381Z,1.48
2023-04-04T18:01:40.386Z,1.75
2023-04-04T18:04:10.720Z,1.45
2023-04-04T18:06:41.764Z,2.10
2023-04-04T18:09:12.507Z,1.67
2023-04-04T18:11:43.080Z,1.95
2023-04-04T18:14:13.455Z,1.58
2023-04-04T18:16:43.766Z,2.10
2023-04-04T18:19:14.489Z,2.00
2023-04-04T18:21:44.749Z,2.10
2023-04-04T18:26:46.447Z,1.40
2023-04-04T18:29:17.080Z,1.73
2023-04-04T18:31:47.726Z,1.38
2023-04-04T18:34:17.929Z,1.55
2023-04-04T18:36:49.538Z,1.65
2023-04-04T18:39:19.989Z,1.00
2023-04-04T18:41:50.905Z,1.80
2023-04-04T18:44:21.438Z,1.27
2023-04-04T18:46:51.803Z,1.48
2023-04-04T18:49:22.342Z,1.40
2023-04-04T18:51:52.439Z,1.10
2023-04-04T18:54:22.489Z,1.10
2023-04-04T18:56:52.910Z,1.38
2023-04-04T18:59:24.615Z,1.35
2023-04-04T19:01:55.284Z,1.92
2023-04-04T19:04:26.038Z,1.67
2023-04-04T19:06:56.421Z,1.25
2023-04-04T19:09:27.515Z,1.33
2023-04-04T19:11:57.713Z,1.33
2023-04-04T19:14:28.529Z,1.73
2023-04-04T19:16:58.692Z,1.95
2023-04-04T19:19:28.958Z,1.30
2023-04-04T19:21:59.217Z,1.25
2023-04-04T19:24:29.165Z,1.50
2023-04-04T19:26:59.465Z,1.77
2023-04-04T19:29:30.318Z,1.77
2023-04-04T19:32:02.600Z,1.80
2023-04-04T19:34:33.144Z,1.52
2023-04-04T19:37:03.645Z,1.90
2023-04-04T19:39:35.284Z,1.70
2023-04-04T19:42:06.984Z,1.63
2023-04-04T19:44:46.233Z,1.50
2023-04-04T19:47:21.176Z,1.73
2023-04-04T19:49:54.904Z,1.50
2023-04-04T19:52:25.815Z,1.55
2023-04-04T19:54:55.889Z,1.58
2023-04-04T19:59:59.901Z,1.27
2023-04-04T20:02:34.059Z,1.88
2023-04-04T20:05:24.416Z,1.58
2023-04-04T20:07:54.680Z,1.70
2023-04-04T20:10:42.565Z,2.00
2023-04-04T20:13:13.494Z,1.98
2023-04-04T20:15:49.810Z,1.50
2023-04-04T20:21:02.275Z,2.08
2023-04-04T20:23:33.041Z,1.42
2023-04-04T20:26:08.944Z,1.48
2023-04-04T20:28:39.128Z,1.55
2023-04-04T20:31:12.383Z,1.42
2023-04-04T20:33:42.848Z,1.63
2023-04-04T20:36:31.249Z,1.25
2023-04-04T20:39:02.085Z,2.10
2023-04-04T20:41:32.338Z,2.28
2023-04-04T20:44:02.632Z,1.63
2023-04-04T20:46:38.122Z,1.30
2023-04-04T20:49:12.816Z,1.70
2023-04-04T20:51:43.774Z,1.70
2023-04-04T20:54:13.955Z,1.80
2023-04-04T20:59:33.493Z,2.58
2023-04-04T21:02:17.828Z,2.00
2023-04-04T21:04:50.880Z,3.10
2023-04-04T21:07:41.160Z,2.28
2023-04-04T21:10:31.573Z,1.38
2023-04-04T21:13:02.553Z,2.33
2023-04-04T21:15:39.749Z,1.65
2023-04-04T21:18:12.868Z,2.33
2023-04-04T21:20:49.173Z,1.80
2023-04-04T21:25:51.958Z,2.17
2023-04-04T21:28:22.561Z,1.85
2023-04-04T21:30:52.756Z,2.40
2023-04-04T21:33:23.212Z,3.00
2023-04-04T21:35:59.750Z,2.63
2023-04-04T21:38:34.464Z,2.55
2023-04-04T21:41:30.382Z,2.15
2023-04-04T21:44:03.199Z,2.72
2023-04-04T21:46:36.062Z,2.53
2023-04-04T21:49:08.125Z,2.88
2023-04-04T21:51:38.636Z,2.97
2023-04-04T21:54:09.116Z,3.13
2023-04-04T21:56:39.451Z,3.10
2023-04-04T21:59:11.132Z,2.88
2023-04-04T22:01:41.715Z,3.83
2023-04-04T22:04:11.885Z,2.50
2023-04-04T22:06:42.378Z,2.85
2023-04-04T22:09:13.029Z,2.42
2023-04-04T22:11:45.533Z,3.78
2023-04-04T22:14:18.630Z,2.85
2023-04-04T22:16:48.816Z,2.65
2023-04-04T22:19:19.280Z,2.67
2023-04-04T22:24:19.150Z,2.70
2023-04-04T22:26:51.566Z,2.17
2023-04-04T22:29:22.062Z,2.40
2023-04-04T22:31:53.053Z,3.40
2023-04-04T22:34:23.612Z,2.80
2023-04-04T22:36:56.240Z,2.42
2023-04-04T22:39:26.374Z,2.65
2023-04-04T22:44:26.397Z,2.72
2023-04-04T22:46:58.081Z,1.60
2023-04-04T22:49:28.379Z,1.75
2023-04-04T22:51:59.285Z,1.70
2023-04-04T22:54:29.869Z,1.58
2023-04-04T22:57:00.540Z,1.77
2023-04-04T22:59:30.694Z,1.77
2023-04-04T23:02:00.938Z,1.52
2023-04-04T23:07:01.172Z,1.90
2023-04-04T23:09:31.502Z,1.70
2023-04-04T23:12:02.568Z,2.30
2023-04-04T23:14:32.620Z,1.13
2023-04-04T23:17:02.839Z,1.83
2023-04-04T23:19:32.659Z,1.70
2023-04-04T23:22:02.739Z,2.08
2023-04-04T23:24:34.016Z,1.63
2023-04-04T23:27:04.114Z,2.53
2023-04-04T23:29:34.333Z,1.40
2023-04-04T23:34:34.192Z,1.95
2023-04-04T23:37:04.667Z,1.10
2023-04-04T23:39:34.854Z,1.60
2023-04-04T23:42:06.555Z,1.17
2023-04-04T23:44:36.854Z,1.40
2023-04-04T23:47:07.583Z,1.55
2023-04-04T23:49:37.841Z,1.30
2023-04-04T23:52:08.645Z,1.73
2023-04-04T23:54:41.870Z,1.25
2023-04-04T23:57:12.158Z,1.42
2023-04-04T23:59:42.298Z,1.20
